Terminal Aerodrome Forecast
Issued by NWS Cleveland, OH

Home | Current Version | Previous Version | Text Only | Print | Product List | Glossary On
Versions: 1 2 3 4 5 6 7 8 9 10 11 12 13 14 15 16 17 18 19 20 21 22
970
FTUS41 KCLE 121737
TAFERI
TAF
KERI 121737Z 1218/1318 23020G28KT P6SM OVC040
     FM122100 25020G30KT 1 1/2SM -SHSN OVC025
      TEMPO 1221/1224 1/2SM SN BLSN OVC012
     FM130000 33018G30KT 5SM -SHSN OVC025
     FM130800 33015G25KT 1 1/2SM -SHSN OVC015
     FM131400 31015G25KT 5SM -SHSN OVC025=

USA.gov is the U.S. government's official web portal to all federal, state and local government web resources and services.